Time;durP1;ratioP1;P1;durP2;ratioP2;P2;SDS_P1;SDS_P2;PMS_P1;PMS_P2;Temp;Humidity;BMP_temperature;BMP_pressure;BME280_temperature;BME280_humidity;BME280_pressure;Samples;Min_cycle;Max_cycle;Signal;HPM_P1;HPM_P2
2020/12/31 00:00:46;;;;;;;1.07;0.90;;;3.80;99.90;;;;;;5068677;28;20202;-85
2020/12/31 00:03:12;;;;;;;1.70;0.90;;;3.80;99.90;;;;;;5069474;28;20233;-86
2020/12/31 00:05:39;;;;;;;1.67;1.00;;;3.80;99.90;;;;;;5070563;28;20193;-90
2020/12/31 00:08:05;;;;;;;4.10;1.20;;;3.80;99.90;;;;;;5071846;28;20289;-90
2020/12/31 00:10:32;;;;;;;3.20;1.30;;;3.80;99.90;;;;;;5071966;28;20282;-90
2020/12/31 00:12:59;;;;;;;1.20;1.07;;;3.80;99.90;;;;;;5071521;28;20274;-89
2020/12/31 00:15:25;;;;;;;2.43;1.13;;;3.80;99.90;;;;;;5072589;28;20220;-88
2020/12/31 00:17:51;;;;;;;2.90;1.10;;;3.80;99.90;;;;;;5072174;28;20233;-87
2020/12/31 00:20:17;;;;;;;2.53;1.03;;;3.80;99.90;;;;;;5068590;28;20200;-85
2020/12/31 00:22:44;;;;;;;1.60;1.30;;;3.80;99.90;;;;;;5051018;28;20206;-83
2020/12/31 00:25:11;;;;;;;1.93;1.10;;;3.90;99.90;;;;;;5049024;28;20205;-87
2020/12/31 00:27:39;;;;;;;1.20;0.90;;;3.90;99.90;;;;;;5049730;28;20264;-89
2020/12/31 00:30:07;;;;;;;1.43;1.17;;;3.90;99.90;;;;;;5048778;28;20202;-85
2020/12/31 00:32:33;;;;;;;1.30;1.03;;;3.90;99.90;;;;;;5051332;28;20202;-91
2020/12/31 00:34:59;;;;;;;1.93;1.27;;;3.90;99.90;;;;;;5050293;28;20210;-85
2020/12/31 00:37:25;;;;;;;0.93;0.93;;;3.90;99.90;;;;;;5059402;28;20225;-85
2020/12/31 00:39:52;;;;;;;2.10;1.23;;;3.90;99.90;;;;;;5052507;28;20212;-81
2020/12/31 00:42:18;;;;;;;1.37;1.10;;;4.00;99.90;;;;;;5043550;28;20635;-79
2020/12/31 00:44:45;;;;;;;2.33;1.23;;;3.90;99.90;;;;;;5043680;28;20197;-80
2020/12/31 00:47:11;;;;;;;2.23;1.20;;;4.00;99.90;;;;;;5043683;28;20198;-79
2020/12/31 00:49:38;;;;;;;3.30;1.07;;;3.90;99.90;;;;;;5043543;28;20202;-80
2020/12/31 00:52:04;;;;;;;2.37;1.00;;;3.90;99.90;;;;;;5043327;28;20202;-81
2020/12/31 00:54:30;;;;;;;3.07;0.93;;;4.00;99.90;;;;;;5043386;28;20193;-80
2020/12/31 00:56:56;;;;;;;4.20;1.10;;;4.00;99.90;;;;;;5043206;28;20217;-80
2020/12/31 00:59:23;;;;;;;2.03;1.27;;;4.00;99.90;;;;;;5043781;28;20773;-79
2020/12/31 01:01:50;;;;;;;2.03;1.10;;;4.00;99.90;;;;;;5043584;28;20309;-82
2020/12/31 01:04:16;;;;;;;1.30;0.70;;;4.00;99.90;;;;;;5042901;28;20245;-80
2020/12/31 01:06:43;;;;;;;2.63;1.27;;;4.00;99.90;;;;;;5043657;28;20852;-80
2020/12/31 01:09:09;;;;;;;2.43;0.77;;;4.00;99.90;;;;;;5043329;28;20226;-86
2020/12/31 01:11:37;;;;;;;2.30;1.13;;;4.00;99.90;;;;;;5045104;28;20194;-80
2020/12/31 01:14:03;;;;;;;2.40;0.80;;;4.00;99.90;;;;;;5042835;28;20194;-81
2020/12/31 01:16:30;;;;;;;3.57;1.27;;;4.00;99.90;;;;;;5042658;28;20194;-80
2020/12/31 01:18:57;;;;;;;4.47;1.50;;;4.00;99.90;;;;;;5044233;28;20206;-85
2020/12/31 01:21:23;;;;;;;5.33;1.83;;;4.10;99.90;;;;;;5044248;28;20307;-82
2020/12/31 01:23:50;;;;;;;2.83;2.40;;;4.00;99.90;;;;;;5044205;28;20252;-80
2020/12/31 01:26:30;;;;;;;2.60;1.83;;;4.00;99.90;;;;;;5043573;28;20795;-80
2020/12/31 01:28:56;;;;;;;3.33;1.77;;;4.00;99.90;;;;;;5042790;28;20732;-85
2020/12/31 01:31:22;;;;;;;2.67;2.20;;;4.00;99.90;;;;;;5042337;28;20217;-83
2020/12/31 01:33:49;;;;;;;5.13;3.23;;;4.00;99.90;;;;;;5042551;28;20210;-83
2020/12/31 01:36:16;;;;;;;3.83;3.10;;;4.00;99.90;;;;;;5042717;28;20206;-81
2020/12/31 01:38:42;;;;;;;3.87;2.23;;;3.90;99.90;;;;;;5043193;28;20229;-83
2020/12/31 01:41:08;;;;;;;2.57;1.87;;;3.80;99.90;;;;;;5043004;28;20189;-82
2020/12/31 01:43:35;;;;;;;3.73;1.67;;;3.90;99.90;;;;;;5042501;28;20210;-81
2020/12/31 01:46:01;;;;;;;2.83;1.40;;;3.80;99.90;;;;;;5042018;28;20205;-82
2020/12/31 01:48:28;;;;;;;1.10;1.00;;;3.80;99.90;;;;;;5025451;28;20280;-82
2020/12/31 01:50:54;;;;;;;1.77;0.97;;;3.80;99.90;;;;;;5042690;28;20259;-85
2020/12/31 01:53:22;;;;;;;3.07;1.20;;;3.70;99.90;;;;;;5044103;28;20202;-82
2020/12/31 01:55:49;;;;;;;1.67;1.00;;;3.80;99.90;;;;;;5043835;28;20202;-80
2020/12/31 01:58:15;;;;;;;3.50;0.80;;;3.80;99.90;;;;;;5043033;28;20229;-82
2020/12/31 02:00:42;;;;;;;1.70;0.83;;;3.80;99.90;;;;;;5043442;28;20275;-82
2020/12/31 02:03:08;;;;;;;1.53;0.90;;;3.70;99.90;;;;;;5045442;28;20237;-82
2020/12/31 02:05:35;;;;;;;3.03;0.90;;;3.70;99.90;;;;;;5047305;28;20228;-81
2020/12/31 02:08:02;;;;;;;1.63;0.97;;;3.70;99.90;;;;;;5047374;28;20201;-82
2020/12/31 02:10:29;;;;;;;1.13;0.80;;;3.60;99.90;;;;;;5048173;28;20218;-81
2020/12/31 02:12:56;;;;;;;3.00;1.10;;;3.60;99.90;;;;;;5047257;28;20280;-85
2020/12/31 02:15:22;;;;;;;2.57;1.60;;;3.70;99.90;;;;;;5046901;28;20221;-82
2020/12/31 02:17:49;;;;;;;4.93;1.10;;;3.60;99.90;;;;;;5046469;28;20229;-82
2020/12/31 02:20:15;;;;;;;1.67;1.07;;;3.60;99.90;;;;;;5046810;28;20202;-83
2020/12/31 02:22:42;;;;;;;3.93;1.20;;;3.60;99.90;;;;;;5047278;28;20198;-83
2020/12/31 02:25:09;;;;;;;1.33;1.20;;;3.70;99.90;;;;;;5046022;28;20545;-81
2020/12/31 02:27:35;;;;;;;3.40;1.20;;;3.70;99.90;;;;;;5047664;28;20202;-80
2020/12/31 02:30:01;;;;;;;2.33;1.37;;;3.60;99.90;;;;;;5046800;28;20252;-80
2020/12/31 02:32:28;;;;;;;1.87;1.20;;;3.70;99.90;;;;;;5046329;28;20198;-81
2020/12/31 02:34:54;;;;;;;2.67;1.40;;;3.70;99.90;;;;;;5047472;28;20528;-80
2020/12/31 02:37:20;;;;;;;2.07;1.60;;;3.70;99.90;;;;;;5046829;28;20524;-80
2020/12/31 02:39:47;;;;;;;2.10;1.60;;;3.70;99.90;;;;;;5046270;28;20239;-80
2020/12/31 02:42:14;;;;;;;1.50;1.37;;;3.70;99.90;;;;;;5046978;28;20201;-82
2020/12/31 02:44:40;;;;;;;6.47;1.90;;;3.70;99.90;;;;;;5047246;28;20205;-81
2020/12/31 02:47:06;;;;;;;2.97;1.60;;;3.70;99.90;;;;;;5046250;28;20238;-81
2020/12/31 02:49:32;;;;;;;2.27;1.50;;;3.60;99.90;;;;;;5046999;28;20206;-83
2020/12/31 02:51:59;;;;;;;2.13;1.60;;;3.70;99.90;;;;;;5047456;28;20615;-80
2020/12/31 02:54:25;;;;;;;4.40;2.00;;;3.70;99.90;;;;;;5046241;28;20201;-83
2020/12/31 02:56:52;;;;;;;2.90;2.47;;;3.70;99.90;;;;;;5046667;28;20740;-81
2020/12/31 02:59:18;;;;;;;4.60;2.50;;;3.70;99.90;;;;;;5047133;28;20209;-79
2020/12/31 03:01:45;;;;;;;2.73;2.30;;;3.70;99.90;;;;;;5047012;28;20209;-83
2020/12/31 03:04:11;;;;;;;2.77;2.10;;;3.70;99.90;;;;;;5047222;28;20241;-82
2020/12/31 03:06:37;;;;;;;6.00;2.60;;;3.70;99.90;;;;;;5046876;28;20206;-81
2020/12/31 03:09:03;;;;;;;6.13;2.77;;;3.70;99.90;;;;;;5046046;28;20214;-80
2020/12/31 03:11:30;;;;;;;5.67;2.70;;;3.70;99.90;;;;;;5045987;28;20210;-82
2020/12/31 03:13:57;;;;;;;3.40;2.67;;;3.70;99.90;;;;;;5046639;28;20213;-85
2020/12/31 03:16:23;;;;;;;4.17;2.77;;;3.70;99.90;;;;;;5046563;28;20194;-80
2020/12/31 03:18:49;;;;;;;8.33;3.00;;;3.70;99.90;;;;;;5045665;28;20226;-80
2020/12/31 03:21:16;;;;;;;8.77;3.13;;;3.70;99.90;;;;;;5051169;28;20541;-80
2020/12/31 03:23:42;;;;;;;6.73;3.27;;;3.60;99.90;;;;;;5067008;28;20201;-84
2020/12/31 03:26:09;;;;;;;4.03;3.10;;;3.60;99.90;;;;;;5066741;28;20213;-81
2020/12/31 03:28:35;;;;;;;5.73;3.53;;;3.60;99.90;;;;;;5066498;28;20208;-80
2020/12/31 03:31:03;;;;;;;4.13;3.23;;;3.60;99.90;;;;;;5066147;28;20205;-81
2020/12/31 03:33:29;;;;;;;5.63;2.97;;;3.60;99.90;;;;;;5066950;28;20204;-81
2020/12/31 03:35:55;;;;;;;4.97;3.30;;;3.60;99.90;;;;;;5067027;28;20319;-81
2020/12/31 03:38:22;;;;;;;4.93;2.80;;;3.60;99.90;;;;;;5066466;28;20290;-84
2020/12/31 03:40:49;;;;;;;4.23;2.53;;;3.60;99.90;;;;;;5066921;28;20288;-82
2020/12/31 03:43:15;;;;;;;4.00;3.00;;;3.60;99.90;;;;;;5065998;28;20250;-82
2020/12/31 03:45:42;;;;;;;4.43;3.03;;;3.60;99.90;;;;;;5066581;28;20213;-80
2020/12/31 03:48:10;;;;;;;3.77;3.00;;;3.60;99.90;;;;;;5066127;28;20511;-80
2020/12/31 03:50:37;;;;;;;6.27;4.00;;;3.60;99.90;;;;;;5065740;28;20212;-80
2020/12/31 03:53:03;;;;;;;5.00;3.93;;;3.60;99.90;;;;;;5066359;28;20205;-86
2020/12/31 03:55:30;;;;;;;6.23;4.77;;;3.60;99.90;;;;;;5049235;28;20250;-84
2020/12/31 03:57:56;;;;;;;7.33;4.50;;;3.70;99.90;;;;;;5066672;28;20209;-83
2020/12/31 04:00:22;;;;;;;7.93;5.70;;;3.60;99.90;;;;;;5066653;28;20244;-80
2020/12/31 04:02:49;;;;;;;8.97;5.63;;;3.60;99.90;;;;;;5067230;28;20229;-85
2020/12/31 04:05:16;;;;;;;10.27;5.90;;;3.60;99.90;;;;;;5066711;28;20645;-85
2020/12/31 04:07:42;;;;;;;8.27;5.73;;;3.60;99.90;;;;;;5067178;28;20201;-80
2020/12/31 04:10:09;;;;;;;9.67;5.13;;;3.60;99.90;;;;;;5066811;28;20221;-80
2020/12/31 04:12:35;;;;;;;9.77;5.37;;;3.60;99.90;;;;;;5066717;28;20202;-83
2020/12/31 04:15:01;;;;;;;6.07;4.47;;;3.60;99.90;;;;;;5067829;28;20263;-87
2020/12/31 04:17:28;;;;;;;8.03;4.67;;;3.60;99.90;;;;;;5067664;28;20217;-81
2020/12/31 04:19:54;;;;;;;8.20;4.60;;;3.60;99.90;;;;;;5067281;28;20209;-81
2020/12/31 04:22:21;;;;;;;6.63;4.20;;;3.50;99.90;;;;;;5052018;28;20202;-82
2020/12/31 04:24:47;;;;;;;5.43;4.30;;;3.50;99.90;;;;;;5047738;28;20232;-82
2020/12/31 04:27:13;;;;;;;6.17;4.47;;;3.50;99.90;;;;;;5038628;28;20193;-83
2020/12/31 04:29:40;;;;;;;6.43;4.87;;;3.50;99.90;;;;;;5046981;28;20248;-81
2020/12/31 04:32:06;;;;;;;7.57;4.20;;;3.50;99.90;;;;;;5046045;28;20606;-82
2020/12/31 04:34:32;;;;;;;10.57;4.57;;;3.50;99.90;;;;;;5046400;28;20209;-79
2020/12/31 04:36:59;;;;;;;7.13;4.77;;;3.50;99.90;;;;;;5047710;28;20225;-84
2020/12/31 04:39:26;;;;;;;8.47;4.53;;;3.50;99.90;;;;;;5047681;28;20340;-80
2020/12/31 04:41:56;;;;;;;5.80;4.07;;;3.50;99.90;;;;;;5047167;28;20880;-80
2020/12/31 04:44:23;;;;;;;5.50;4.33;;;3.50;99.90;;;;;;5046867;28;20256;-80
2020/12/31 04:46:54;;;;;;;5.50;4.30;;;3.50;99.90;;;;;;5047779;28;20922;-89
2020/12/31 04:49:21;;;;;;;7.60;4.57;;;3.40;99.90;;;;;;5048211;28;20210;-84
2020/12/31 04:51:49;;;;;;;8.07;5.73;;;3.40;99.90;;;;;;5046598;28;20249;-79
2020/12/31 04:54:16;;;;;;;8.33;6.23;;;3.40;99.90;;;;;;5047089;28;20206;-85
2020/12/31 04:56:45;;;;;;;7.67;5.80;;;3.30;99.90;;;;;;5049501;28;20720;-89
2020/12/31 04:59:11;;;;;;;7.10;5.03;;;3.30;99.90;;;;;;5048150;28;20220;-79
2020/12/31 05:01:41;;;;;;;10.23;6.07;;;3.30;99.90;;;;;;5047446;28;20194;-82
2020/12/31 05:04:07;;;;;;;8.07;5.67;;;3.30;99.90;;;;;;5048225;28;20238;-84
2020/12/31 05:06:36;;;;;;;13.03;6.77;;;3.30;99.90;;;;;;5049870;28;20877;-84
2020/12/31 05:09:16;;;;;;;10.90;7.53;;;3.40;99.90;;;;;;5049509;28;20222;-88
2020/12/31 05:11:45;;;;;;;11.00;6.73;;;3.50;99.90;;;;;;5049250;28;20213;-89
2020/12/31 05:14:11;;;;;;;8.57;5.37;;;3.50;99.90;;;;;;5050761;28;20198;-85
2020/12/31 05:16:37;;;;;;;8.63;4.37;;;3.50;99.90;;;;;;5058845;28;20263;-82
2020/12/31 05:19:20;;;;;;;7.23;4.17;;;3.60;99.90;;;;;;5049287;28;20249;-79
2020/12/31 05:21:46;;;;;;;5.63;3.27;;;3.60;99.90;;;;;;5053532;28;20644;-82
2020/12/31 05:24:13;;;;;;;4.87;2.83;;;3.60;99.90;;;;;;5064903;28;20193;-79
2020/12/31 05:26:40;;;;;;;2.57;1.90;;;3.60;99.90;;;;;;5064654;28;20209;-80
2020/12/31 05:29:08;;;;;;;2.93;1.37;;;3.60;99.90;;;;;;5063529;28;20193;-80
2020/12/31 05:31:52;;;;;;;1.50;1.10;;;3.60;99.90;;;;;;5064798;28;20212;-77
2020/12/31 05:34:28;;;;;;;2.70;0.80;;;3.50;99.90;;;;;;5064459;28;20189;-79
2020/12/31 05:36:55;;;;;;;1.20;0.70;;;3.50;99.90;;;;;;5062994;28;20845;-78
2020/12/31 05:39:21;;;;;;;1.80;0.70;;;3.40;99.90;;;;;;5063784;28;20198;-79
2020/12/31 05:41:47;;;;;;;1.60;0.53;;;3.40;99.90;;;;;;5063388;28;20236;-79
2020/12/31 05:44:14;;;;;;;1.17;0.60;;;3.40;99.90;;;;;;5063277;28;20286;-82
2020/12/31 05:46:41;;;;;;;2.20;0.70;;;3.40;99.90;;;;;;5064811;28;20197;-82
2020/12/31 05:49:09;;;;;;;1.50;0.60;;;3.30;99.90;;;;;;5063981;28;20853;-79
2020/12/31 05:51:37;;;;;;;0.60;0.60;;;3.30;99.90;;;;;;5063519;28;20312;-80
2020/12/31 05:54:07;;;;;;;1.40;0.70;;;3.20;99.90;;;;;;5063707;28;20209;-80
2020/12/31 05:56:34;;;;;;;0.70;0.63;;;3.20;99.90;;;;;;5065735;28;20209;-85
2020/12/31 05:59:15;;;;;;;1.80;0.70;;;3.30;99.90;;;;;;5063168;28;20221;-79
2020/12/31 06:01:55;;;;;;;0.77;0.70;;;3.30;99.90;;;;;;5063948;28;20205;-79
2020/12/31 06:04:42;;;;;;;0.40;0.40;;;3.30;99.90;;;;;;5064798;28;20275;-84
2020/12/31 06:07:28;;;;;;;0.70;0.50;;;3.30;99.90;;;;;;5063583;28;20197;-80
2020/12/31 06:10:03;;;;;;;0.77;0.57;;;3.30;99.90;;;;;;5063651;28;20213;-88
2020/12/31 06:12:38;;;;;;;1.53;0.70;;;3.30;99.90;;;;;;5066017;28;20196;-80
2020/12/31 06:15:08;;;;;;;0.90;0.57;;;3.30;99.90;;;;;;5063447;28;20201;-81
2020/12/31 06:17:44;;;;;;;1.20;0.53;;;3.30;99.90;;;;;;5063523;28;20311;-79
2020/12/31 06:20:13;;;;;;;0.80;0.50;;;3.30;99.90;;;;;;5065213;28;20247;-84
2020/12/31 06:23:00;;;;;;;0.47;0.40;;;3.30;99.90;;;;;;5048210;28;20206;-79
2020/12/31 06:25:35;;;;;;;0.93;0.90;;;3.30;99.90;;;;;;5043600;28;20224;-79
2020/12/31 06:28:05;;;;;;;0.43;0.43;;;3.30;99.90;;;;;;5045739;28;20193;-85
2020/12/31 06:30:33;;;;;;;0.60;0.60;;;3.30;99.90;;;;;;5063091;22;20820;-80
2020/12/31 06:33:07;;;;;;;0.77;0.70;;;3.20;99.90;;;;;;5063857;28;20282;-80
2020/12/31 06:35:35;;;;;;;0.47;0.47;;;3.20;99.90;;;;;;5064415;28;20612;-79
2020/12/31 06:38:01;;;;;;;0.50;0.50;;;3.20;99.90;;;;;;5065128;28;20229;-85
2020/12/31 06:40:29;;;;;;;0.50;0.50;;;3.20;99.90;;;;;;5064908;28;20205;-78
2020/12/31 06:43:04;;;;;;;1.03;0.70;;;3.20;99.90;;;;;;5064638;28;20209;-80
2020/12/31 06:45:34;;;;;;;0.60;0.60;;;3.20;99.90;;;;;;5064635;28;20270;-80
2020/12/31 06:48:01;;;;;;;0.90;0.73;;;3.20;99.90;;;;;;5065363;28;20204;-88
2020/12/31 06:50:56;;;;;;;1.80;0.70;;;3.20;99.90;;;;;;5070506;28;20225;-86
2020/12/31 06:53:30;;;;;;;1.27;0.80;;;3.20;99.90;;;;;;5068738;28;20201;-80
2020/12/31 06:55:56;;;;;;;0.80;0.70;;;3.20;99.90;;;;;;5070681;28;20201;-85
2020/12/31 06:58:24;;;;;;;1.10;1.00;;;3.10;99.90;;;;;;5071902;28;20236;-89
2020/12/31 07:00:51;;;;;;;1.10;1.00;;;3.10;99.90;;;;;;5072856;28;20548;-89
2020/12/31 07:03:46;;;;;;;2.20;1.70;;;3.10;99.90;;;;;;5071361;28;20224;-87
2020/12/31 07:06:26;;;;;;;1.60;1.30;;;3.10;99.90;;;;;;5064821;28;20316;-88
2020/12/31 07:08:54;;;;;;;2.03;1.60;;;3.10;99.90;;;;;;5066904;28;20617;-89
2020/12/31 07:11:35;;;;;;;1.97;1.70;;;3.10;99.90;;;;;;5069811;28;20197;-90
2020/12/31 07:14:04;;;;;;;3.13;1.83;;;3.10;99.90;;;;;;5073045;28;20200;-88
2020/12/31 07:16:52;;;;;;;2.43;1.90;;;3.00;99.90;;;;;;5072925;28;20190;-90
2020/12/31 07:19:21;;;;;;;2.40;1.80;;;3.00;99.90;;;;;;5072218;28;20248;-91
2020/12/31 07:21:50;;;;;;;2.33;2.10;;;3.00;99.90;;;;;;5072678;28;20190;-89
2020/12/31 07:24:27;;;;;;;2.30;2.10;;;3.00;99.90;;;;;;5072764;28;20186;-90
2020/12/31 07:26:58;;;;;;;3.00;1.93;;;3.00;99.90;;;;;;5073545;28;20217;-86
2020/12/31 07:29:32;;;;;;;2.30;1.80;;;2.90;99.90;;;;;;5071748;28;20205;-82
2020/12/31 07:31:59;;;;;;;2.80;2.43;;;2.90;99.90;;;;;;5072939;28;20251;-81
2020/12/31 07:34:28;;;;;;;3.27;2.40;;;2.90;99.90;;;;;;5072273;28;20200;-90
2020/12/31 07:37:03;;;;;;;3.83;2.70;;;2.90;99.90;;;;;;5071668;28;20287;-90
2020/12/31 07:39:31;;;;;;;3.27;2.67;;;2.90;99.90;;;;;;5068774;28;20197;-90
2020/12/31 07:42:14;;;;;;;3.03;2.37;;;2.90;99.90;;;;;;5067667;28;20189;-81
2020/12/31 07:44:54;;;;;;;3.70;2.97;;;2.90;99.90;;;;;;5065469;28;20197;-86
2020/12/31 07:47:22;;;;;;;3.80;2.50;;;2.80;99.90;;;;;;5065008;28;20204;-90
2020/12/31 07:49:51;;;;;;;2.70;2.50;;;2.80;99.90;;;;;;5064601;28;20201;-82
2020/12/31 07:52:17;;;;;;;2.90;2.60;;;2.70;99.90;;;;;;5064583;28;20201;-85
2020/12/31 07:54:44;;;;;;;2.50;2.20;;;2.70;99.90;;;;;;5064403;28;20797;-80
2020/12/31 07:57:12;;;;;;;2.87;2.60;;;2.70;99.90;;;;;;5064890;28;20197;-81
2020/12/31 07:59:42;;;;;;;2.50;2.30;;;2.70;99.90;;;;;;5065124;28;20251;-81
2020/12/31 08:02:10;;;;;;;2.37;2.17;;;2.70;99.90;;;;;;5066511;28;20205;-83
2020/12/31 08:04:36;;;;;;;4.63;2.70;;;2.60;99.90;;;;;;5065418;28;20243;-85
2020/12/31 08:07:04;;;;;;;3.80;2.70;;;2.60;99.90;;;;;;5068438;28;20255;-81
2020/12/31 08:09:31;;;;;;;3.33;3.03;;;2.60;99.90;;;;;;5068066;28;20232;-86
2020/12/31 08:11:58;;;;;;;3.27;2.80;;;2.50;99.90;;;;;;5069020;28;20205;-82
2020/12/31 08:14:24;;;;;;;3.50;3.17;;;2.50;99.90;;;;;;5068323;28;20252;-84
2020/12/31 08:17:01;;;;;;;5.87;4.67;;;2.50;99.90;;;;;;5069065;28;20233;-85
2020/12/31 08:19:28;;;;;;;5.53;4.33;;;2.50;99.90;;;;;;5069766;28;20201;-84
2020/12/31 08:22:08;;;;;;;5.40;4.80;;;2.50;99.90;;;;;;5070252;28;20202;-85
2020/12/31 08:24:44;;;;;;;7.57;4.90;;;2.50;99.90;;;;;;5070022;28;20197;-84
2020/12/31 08:27:16;;;;;;;4.90;4.10;;;2.40;99.90;;;;;;5070619;28;20246;-86
2020/12/31 08:29:43;;;;;;;9.13;6.87;;;2.40;99.90;;;;;;5069597;28;20241;-86
2020/12/31 08:32:14;;;;;;;10.77;7.47;;;2.40;99.90;;;;;;5069019;28;20397;-82
2020/12/31 08:34:41;;;;;;;9.37;6.90;;;2.40;99.90;;;;;;5069340;28;20604;-83
2020/12/31 08:54:29;;;;;;;10.60;7.90;;;2.30;99.90;;;;;;4846308;29;20633;-85
2020/12/31 08:56:56;;;;;;;11.07;8.20;;;2.30;99.90;;;;;;4877783;29;20192;-86
2020/12/31 08:59:22;;;;;;;11.93;8.07;;;2.30;99.90;;;;;;5001437;28;20251;-83
2020/12/31 09:01:48;;;;;;;11.10;8.40;;;2.30;99.90;;;;;;5007809;28;20596;-83
2020/12/31 09:04:16;;;;;;;12.53;9.83;;;2.30;99.90;;;;;;5007932;28;20546;-85
2020/12/31 09:06:44;;;;;;;14.37;11.70;;;2.30;99.90;;;;;;5008146;28;20207;-84
2020/12/31 09:09:18;;;;;;;14.17;10.37;;;2.30;99.90;;;;;;5007698;28;20845;-84
2020/12/31 09:11:57;;;;;;;18.17;12.70;;;2.40;99.90;;;;;;5045104;28;20205;-81
2020/12/31 09:14:24;;;;;;;16.67;13.00;;;2.40;99.90;;;;;;5069498;28;20205;-86
2020/12/31 09:16:50;;;;;;;18.23;14.00;;;2.40;99.90;;;;;;5069961;28;20208;-83
2020/12/31 09:19:17;;;;;;;20.73;14.70;;;2.50;99.90;;;;;;5068924;28;20232;-85
2020/12/31 09:21:44;;;;;;;23.93;16.67;;;2.50;99.90;;;;;;5070197;28;20201;-87
2020/12/31 09:24:14;;;;;;;24.30;16.10;;;2.60;99.90;;;;;;5070188;28;20216;-87
2020/12/31 09:26:41;;;;;;;23.57;17.53;;;2.70;99.90;;;;;;5070291;28;20203;-88
2020/12/31 09:29:10;;;;;;;26.27;17.57;;;2.70;99.90;;;;;;5066008;28;20197;-88
2020/12/31 09:31:37;;;;;;;25.57;18.63;;;2.80;99.90;;;;;;5068856;28;20656;-87
2020/12/31 09:34:03;;;;;;;29.20;20.70;;;2.90;99.90;;;;;;5068860;28;20210;-83
2020/12/31 09:36:30;;;;;;;32.20;22.47;;;2.90;99.90;;;;;;5068431;28;20208;-84
2020/12/31 09:38:56;;;;;;;28.77;20.83;;;3.00;99.90;;;;;;5069213;28;20205;-88
2020/12/31 09:41:22;;;;;;;33.27;22.93;;;3.10;99.90;;;;;;5068639;28;20216;-88
2020/12/31 09:43:50;;;;;;;33.33;21.97;;;3.10;99.90;;;;;;5069223;28;20189;-89
2020/12/31 09:46:19;;;;;;;28.53;20.03;;;3.10;99.90;;;;;;5067867;28;20224;-84
2020/12/31 09:48:45;;;;;;;26.13;19.10;;;3.10;99.90;;;;;;5067187;28;20237;-87
2020/12/31 09:51:12;;;;;;;28.87;21.03;;;3.10;99.90;;;;;;5062975;28;20550;-88
2020/12/31 09:53:38;;;;;;;28.00;20.37;;;3.10;99.90;;;;;;5065429;28;20204;-83
2020/12/31 09:56:07;;;;;;;26.23;20.40;;;3.10;99.90;;;;;;5064320;28;20213;-86
2020/12/31 09:58:33;;;;;;;26.07;19.30;;;3.10;99.90;;;;;;5067009;28;20221;-83
2020/12/31 10:01:01;;;;;;;24.93;19.23;;;3.10;99.90;;;;;;5064154;28;20263;-80
2020/12/31 10:03:28;;;;;;;26.07;19.70;;;3.10;99.90;;;;;;5063340;28;20204;-82
2020/12/31 10:05:56;;;;;;;28.17;19.63;;;3.20;99.90;;;;;;5050623;28;20243;-88
2020/12/31 10:08:22;;;;;;;38.93;27.63;;;3.20;99.90;;;;;;5068133;28;20193;-81
2020/12/31 10:10:48;;;;;;;36.97;27.03;;;3.30;99.90;;;;;;5064503;28;20209;-81
2020/12/31 10:13:16;;;;;;;34.10;24.93;;;3.40;99.90;;;;;;5066408;28;20205;-90
2020/12/31 10:15:42;;;;;;;39.87;25.83;;;3.50;99.90;;;;;;5068054;28;20197;-92
2020/12/31 10:18:08;;;;;;;36.43;25.97;;;3.50;99.90;;;;;;5064012;28;20225;-92
2020/12/31 10:20:36;;;;;;;38.90;27.77;;;3.60;99.90;;;;;;5063898;28;20197;-92
2020/12/31 10:23:03;;;;;;;39.93;26.60;;;3.60;99.90;;;;;;5068344;28;20231;-91
2020/12/31 10:25:29;;;;;;;38.53;27.83;;;3.70;99.90;;;;;;5073502;28;20220;-92
2020/12/31 10:27:55;;;;;;;39.73;27.00;;;3.70;99.90;;;;;;5072674;28;20209;-93
2020/12/31 10:30:22;;;;;;;41.30;28.40;;;3.70;99.90;;;;;;5072998;28;20237;-92
2020/12/31 10:32:48;;;;;;;43.60;28.17;;;3.70;99.90;;;;;;5074001;28;20193;-92
2020/12/31 10:35:14;;;;;;;38.00;26.87;;;3.80;99.90;;;;;;5073924;28;20833;-91
2020/12/31 10:37:42;;;;;;;40.63;26.70;;;3.80;99.90;;;;;;5073532;28;20290;-90
2020/12/31 10:40:08;;;;;;;37.03;26.50;;;3.80;99.90;;;;;;5073927;28;20212;-92
2020/12/31 10:42:35;;;;;;;35.70;24.40;;;3.80;99.90;;;;;;5078473;28;20213;-88
2020/12/31 10:45:01;;;;;;;35.90;24.73;;;3.80;99.90;;;;;;5077893;28;20746;-88
2020/12/31 10:47:28;;;;;;;36.17;24.97;;;3.90;99.90;;;;;;5067280;28;20205;-89
2020/12/31 10:49:54;;;;;;;41.53;26.40;;;3.90;99.90;;;;;;5068807;28;20258;-88
2020/12/31 10:52:20;;;;;;;38.33;26.00;;;4.00;99.90;;;;;;5068485;28;20224;-88
2020/12/31 10:54:48;;;;;;;38.23;27.10;;;4.10;99.90;;;;;;5068687;28;20205;-89
2020/12/31 10:57:14;;;;;;;42.57;27.17;;;4.10;99.90;;;;;;5071619;28;20271;-87
2020/12/31 10:59:40;;;;;;;38.53;27.10;;;4.20;99.90;;;;;;5071544;28;20229;-89
2020/12/31 11:02:07;;;;;;;36.53;26.10;;;4.30;99.90;;;;;;5069814;28;20213;-89
2020/12/31 11:04:33;;;;;;;34.23;24.53;;;4.50;99.90;;;;;;5069320;28;20213;-89
2020/12/31 11:06:59;;;;;;;37.53;25.77;;;4.50;99.90;;;;;;5070605;28;20201;-88
2020/12/31 11:09:26;;;;;;;33.83;24.20;;;4.60;99.90;;;;;;5071117;28;20278;-89
2020/12/31 11:11:53;;;;;;;36.03;24.97;;;4.70;99.90;;;;;;5064769;28;20496;-90
2020/12/31 11:14:19;;;;;;;38.47;25.47;;;4.70;99.90;;;;;;5064314;28;20661;-90
2020/12/31 11:16:49;;;;;;;36.17;24.43;;;4.70;99.90;;;;;;5062732;28;20212;-90
2020/12/31 11:19:15;;;;;;;32.40;23.67;;;4.70;99.90;;;;;;5055411;28;20375;-90
2020/12/31 11:21:44;;;;;;;32.80;23.87;;;4.70;99.90;;;;;;5061412;28;20197;-89
2020/12/31 11:24:10;;;;;;;32.70;23.17;;;4.80;99.90;;;;;;5059691;28;20210;-89
2020/12/31 11:26:36;;;;;;;36.80;25.07;;;4.80;99.90;;;;;;5059688;28;20198;-85
2020/12/31 11:29:06;;;;;;;32.37;22.73;;;4.80;99.90;;;;;;5057247;28;20201;-83
2020/12/31 11:31:32;;;;;;;33.40;23.70;;;4.80;99.90;;;;;;5056844;28;20775;-82
2020/12/31 11:34:00;;;;;;;31.63;21.93;;;4.80;99.90;;;;;;5060697;28;20209;-86
2020/12/31 11:36:27;;;;;;;28.93;22.73;;;4.80;99.90;;;;;;5060167;28;20641;-90
2020/12/31 11:38:54;;;;;;;30.80;22.43;;;4.80;99.90;;;;;;5057012;28;20851;-86
2020/12/31 11:41:21;;;;;;;28.47;21.00;;;4.80;99.90;;;;;;5060052;28;20216;-89
2020/12/31 11:43:48;;;;;;;30.97;21.73;;;4.80;99.90;;;;;;5063856;28;20209;-89
2020/12/31 11:46:15;;;;;;;26.90;20.20;;;4.80;99.90;;;;;;5059130;28;20224;-86
2020/12/31 11:48:41;;;;;;;28.80;21.57;;;4.80;99.90;;;;;;5059477;28;20271;-88
2020/12/31 11:51:10;;;;;;;31.53;20.27;;;4.90;99.90;;;;;;5062060;28;20202;-83
2020/12/31 11:53:37;;;;;;;31.13;20.23;;;4.90;99.90;;;;;;5064444;28;20213;-90
2020/12/31 11:56:04;;;;;;;31.60;20.93;;;4.90;99.90;;;;;;5058429;28;20209;-83
2020/12/31 11:58:31;;;;;;;24.23;18.30;;;5.00;99.90;;;;;;5063274;28;20229;-81
2020/12/31 12:00:58;;;;;;;27.07;20.50;;;5.10;99.90;;;;;;5060274;28;20501;-86
2020/12/31 12:03:26;;;;;;;26.87;19.73;;;5.20;99.90;;;;;;5060255;28;20460;-82
2020/12/31 12:05:53;;;;;;;28.23;21.07;;;5.30;99.90;;;;;;5059566;28;20210;-79
2020/12/31 12:08:21;;;;;;;28.00;21.00;;;5.30;99.90;;;;;;5057133;28;20962;-83
2020/12/31 12:10:49;;;;;;;27.77;19.67;;;5.30;99.90;;;;;;5056514;28;20221;-80
2020/12/31 12:13:15;;;;;;;24.90;19.20;;;5.30;99.90;;;;;;5058133;28;20229;-80
2020/12/31 12:15:41;;;;;;;22.03;17.43;;;5.30;99.90;;;;;;5058352;28;20224;-88
2020/12/31 12:18:08;;;;;;;22.33;16.20;;;5.30;99.90;;;;;;5058167;28;20276;-87
2020/12/31 12:20:35;;;;;;;22.60;17.60;;;5.40;99.90;;;;;;5058237;28;20217;-82
2020/12/31 12:23:02;;;;;;;18.97;14.77;;;5.40;99.90;;;;;;5056049;28;20517;-82
2020/12/31 12:25:28;;;;;;;21.90;15.63;;;5.40;99.90;;;;;;5057435;28;20217;-85
2020/12/31 12:27:55;;;;;;;22.17;16.37;;;5.40;99.90;;;;;;5061101;28;20267;-81
2020/12/31 12:30:22;;;;;;;25.83;19.83;;;5.40;99.90;;;;;;5057896;28;20244;-82
2020/12/31 12:32:48;;;;;;;29.43;19.60;;;5.50;99.90;;;;;;5061029;28;20224;-81
2020/12/31 12:35:14;;;;;;;24.70;18.77;;;5.50;99.90;;;;;;5066365;28;20201;-81
2020/12/31 12:37:42;;;;;;;25.57;18.33;;;5.40;99.90;;;;;;5066141;28;20263;-82
2020/12/31 12:40:09;;;;;;;21.13;16.67;;;5.30;99.90;;;;;;5067397;28;20214;-85
2020/12/31 12:42:36;;;;;;;24.93;17.83;;;5.30;99.90;;;;;;5065661;28;20193;-81
2020/12/31 12:45:04;;;;;;;23.23;17.93;;;5.20;99.90;;;;;;5066589;28;20197;-85
2020/12/31 12:47:33;;;;;;;20.00;15.77;;;5.20;99.90;;;;;;5066759;28;20193;-84
2020/12/31 12:49:59;;;;;;;18.97;14.50;;;5.20;99.90;;;;;;5066777;28;20197;-87
2020/12/31 12:52:25;;;;;;;19.93;15.73;;;5.20;99.90;;;;;;5066438;28;20244;-82
2020/12/31 12:54:53;;;;;;;15.27;12.77;;;5.20;99.90;;;;;;5067083;28;20220;-81
2020/12/31 12:57:19;;;;;;;16.33;13.40;;;5.20;99.90;;;;;;5067196;28;20197;-85
2020/12/31 12:59:45;;;;;;;20.27;15.63;;;5.20;99.90;;;;;;5066432;28;20282;-85
2020/12/31 13:02:11;;;;;;;17.87;13.07;;;5.20;99.90;;;;;;5067408;28;20273;-83
2020/12/31 13:04:38;;;;;;;14.53;10.57;;;5.20;99.90;;;;;;5066523;28;20230;-88
2020/12/31 13:07:04;;;;;;;13.17;10.63;;;5.20;99.90;;;;;;5066554;28;20201;-81
2020/12/31 13:09:30;;;;;;;15.90;10.80;;;5.10;99.90;;;;;;5066313;28;20216;-88
2020/12/31 13:11:58;;;;;;;16.87;9.93;;;5.20;99.90;;;;;;5066164;28;20209;-87